Time;durP1;ratioP1;P1;durP2;ratioP2;P2;SDS_P1;SDS_P2;PMS_P1;PMS_P2;Temp;Humidity;BMP_temperature;BMP_pressure;BME280_temperature;BME280_humidity;BME280_pressure;Samples;Min_cycle;Max_cycle;Signal;HPM_P1;HPM_P2
2021/04/30 08:31:17;;;;;;;21.25;11.15;;;13.00;80.50;;;;;;12134001;27;20399;-75
2021/04/30 08:37:03;;;;;;;18.33;10.02;;;13.70;77.60;;;;;;12118389;28;20036;-75
2021/04/30 08:42:51;;;;;;;19.73;11.07;;;14.50;74.30;;;;;;12114843;27;20067;-74
2021/04/30 08:48:39;;;;;;;17.90;9.35;;;14.90;70.40;;;;;;12118692;27;20044;-74
2021/04/30 08:54:26;;;;;;;34.22;16.73;;;15.00;69.10;;;;;;12123773;27;20423;-76
2021/04/30 09:00:14;;;;;;;27.30;16.52;;;15.40;69.00;;;;;;12123746;28;20044;-77
2021/04/30 09:06:02;;;;;;;22.00;12.48;;;15.70;67.60;;;;;;12121357;28;20054;-79
2021/04/30 09:11:52;;;;;;;20.65;9.55;;;15.90;66.90;;;;;;12114906;27;20071;-78
2021/04/30 09:17:38;;;;;;;15.02;8.30;;;16.20;64.80;;;;;;12114386;28;20464;-79
2021/04/30 09:23:37;;;;;;;16.38;8.07;;;16.20;61.30;;;;;;12120344;28;20052;-78
2021/04/30 09:29:24;;;;;;;19.60;8.00;;;16.20;63.30;;;;;;12114610;28;20043;-79
2021/04/30 09:35:22;;;;;;;13.75;7.47;;;16.30;61.00;;;;;;12120988;28;20047;-79
2021/04/30 09:41:11;;;;;;;12.63;7.90;;;16.30;62.60;;;;;;12090768;28;20048;-77
2021/04/30 09:47:12;;;;;;;15.35;7.97;;;16.20;60.80;;;;;;12090233;28;20591;-78
2021/04/30 09:53:00;;;;;;;14.77;7.43;;;16.20;61.00;;;;;;12059694;28;20051;-81
2021/04/30 09:58:47;;;;;;;20.30;10.52;;;16.20;60.30;;;;;;12046813;28;20053;-76
2021/04/30 10:04:34;;;;;;;13.10;7.40;;;16.10;60.40;;;;;;12058538;28;20052;-75
2021/04/30 10:10:23;;;;;;;16.90;8.23;;;16.20;58.90;;;;;;12068044;28;20558;-76
2021/04/30 10:16:10;;;;;;;15.07;7.88;;;16.20;59.70;;;;;;12081591;28;20044;-75
2021/04/30 10:21:57;;;;;;;13.68;7.68;;;16.30;60.10;;;;;;12076024;28;20110;-73
2021/04/30 10:27:44;;;;;;;13.38;7.70;;;16.50;59.30;;;;;;12077559;28;20060;-75
2021/04/30 10:33:37;;;;;;;12.90;7.43;;;16.50;57.00;;;;;;12077073;28;20044;-76
2021/04/30 10:39:32;;;;;;;14.02;7.28;;;16.20;58.00;;;;;;12079719;28;20109;-76
2021/04/30 10:45:19;;;;;;;11.40;7.05;;;16.00;58.00;;;;;;12075028;28;20779;-76
2021/04/30 10:51:13;;;;;;;10.43;7.00;;;16.10;58.40;;;;;;12068074;28;20058;-78
2021/04/30 10:57:01;;;;;;;16.33;7.45;;;16.30;57.70;;;;;;12068499;28;20048;-78
2021/04/30 11:02:48;;;;;;;15.95;7.28;;;16.40;58.20;;;;;;12070663;28;20095;-77
2021/04/30 11:08:49;;;;;;;15.93;7.05;;;16.70;57.60;;;;;;12074198;28;20059;-77
2021/04/30 11:14:36;;;;;;;13.13;6.78;;;16.90;56.90;;;;;;12075744;28;20507;-78
2021/04/30 11:20:24;;;;;;;8.77;6.18;;;17.00;55.40;;;;;;12072533;28;20550;-77
2021/04/30 11:26:13;;;;;;;11.50;7.22;;;17.10;54.80;;;;;;12075214;28;20129;-77
2021/04/30 11:32:20;;;;;;;15.95;7.18;;;17.10;55.00;;;;;;12074890;28;20043;-78
2021/04/30 11:38:07;;;;;;;10.15;6.70;;;17.00;55.40;;;;;;12075502;28;20071;-77
2021/04/30 11:43:54;;;;;;;11.75;6.45;;;17.10;55.00;;;;;;12074659;28;20059;-77
2021/04/30 11:49:42;;;;;;;14.60;6.78;;;17.10;55.20;;;;;;12070832;28;20063;-78
2021/04/30 11:55:28;;;;;;;15.23;7.88;;;17.20;55.20;;;;;;12071796;28;20507;-79
2021/04/30 12:01:16;;;;;;;10.70;7.10;;;17.20;55.20;;;;;;12069737;28;20060;-78
2021/04/30 12:07:02;;;;;;;14.93;7.20;;;17.00;53.80;;;;;;12066498;28;20809;-76
2021/04/30 12:12:51;;;;;;;14.07;6.18;;;16.80;54.70;;;;;;12063603;28;20081;-75
2021/04/30 12:18:39;;;;;;;11.35;6.72;;;16.80;55.50;;;;;;12070399;28;20047;-76
2021/04/30 12:24:31;;;;;;;10.43;6.60;;;16.90;55.60;;;;;;12078055;28;20060;-76
2021/04/30 12:30:26;;;;;;;14.82;6.63;;;16.90;54.90;;;;;;12068237;28;20048;-77
2021/04/30 12:36:16;;;;;;;11.95;6.78;;;17.00;54.30;;;;;;12072392;28;20055;-77
2021/04/30 12:42:02;;;;;;;9.30;6.05;;;17.60;53.30;;;;;;12072733;28;20116;-77
2021/04/30 12:47:52;;;;;;;15.13;6.47;;;18.00;52.20;;;;;;12082933;28;20438;-76
2021/04/30 12:53:44;;;;;;;49.72;30.30;;;18.00;51.20;;;;;;12077892;28;20151;-77
2021/04/30 12:59:31;;;;;;;9.55;6.10;;;18.10;50.20;;;;;;12069238;28;20052;-76
2021/04/30 13:05:17;;;;;;;12.43;6.47;;;18.30;50.90;;;;;;12071021;28;20040;-77
2021/04/30 13:11:09;;;;;;;11.77;5.90;;;18.30;48.80;;;;;;12038981;28;20039;-77
2021/04/30 13:16:55;;;;;;;11.30;6.15;;;18.30;50.00;;;;;;12074772;28;20044;-78
2021/04/30 13:22:41;;;;;;;10.27;6.18;;;18.10;51.00;;;;;;12041350;28;20127;-75
2021/04/30 13:28:31;;;;;;;10.00;6.15;;;18.10;50.30;;;;;;12076210;28;20407;-76
2021/04/30 13:34:20;;;;;;;12.60;6.28;;;18.10;50.40;;;;;;12068059;28;20060;-76
2021/04/30 13:40:09;;;;;;;12.48;6.57;;;18.10;50.30;;;;;;12079837;28;20076;-78
2021/04/30 13:46:09;;;;;;;11.25;6.30;;;18.00;49.60;;;;;;12062870;28;20057;-79
2021/04/30 13:51:55;;;;;;;9.35;5.68;;;18.00;50.30;;;;;;12009283;27;20067;-78
2021/04/30 13:57:43;;;;;;;12.25;6.10;;;18.00;51.10;;;;;;12076948;28;20632;-79
2021/04/30 14:03:30;;;;;;;9.88;6.38;;;17.90;50.50;;;;;;12076476;28;20047;-79
2021/04/30 14:09:16;;;;;;;12.35;6.13;;;17.90;51.30;;;;;;12079049;28;20731;-77
2021/04/30 14:15:04;;;;;;;11.30;5.90;;;18.00;50.30;;;;;;12081611;28;20056;-78
2021/04/30 14:20:51;;;;;;;11.57;5.68;;;18.00;50.10;;;;;;12071123;28;20051;-79
2021/04/30 14:26:38;;;;;;;24.08;11.45;;;17.80;48.40;;;;;;12074931;28;20401;-78
2021/04/30 14:32:25;;;;;;;18.23;8.38;;;17.80;50.10;;;;;;12075156;28;20562;-78
2021/04/30 14:38:16;;;;;;;20.38;10.38;;;17.70;50.30;;;;;;12075894;28;20108;-77
2021/04/30 14:44:04;;;;;;;13.88;6.80;;;17.70;50.50;;;;;;12079792;28;20052;-78
2021/04/30 14:49:51;;;;;;;13.10;6.18;;;17.70;51.30;;;;;;12073877;28;20052;-78
2021/04/30 14:55:38;;;;;;;10.20;6.00;;;17.90;51.00;;;;;;12073377;28;20139;-78
2021/04/30 15:01:26;;;;;;;11.25;6.43;;;18.00;49.50;;;;;;12074031;28;20048;-77
2021/04/30 15:07:13;;;;;;;13.20;6.00;;;17.70;48.10;;;;;;12080657;28;20136;-78
2021/04/30 15:13:01;;;;;;;14.93;5.90;;;17.60;49.50;;;;;;12078086;28;20190;-79
2021/04/30 15:18:50;;;;;;;9.98;5.70;;;18.20;48.80;;;;;;12079431;28;20083;-79
2021/04/30 15:24:37;;;;;;;10.32;5.97;;;18.60;48.80;;;;;;12090751;28;20054;-78
2021/04/30 15:30:24;;;;;;;8.98;5.78;;;19.20;47.90;;;;;;12103764;28;20044;-80
2021/04/30 15:36:10;;;;;;;7.53;5.50;;;19.60;45.80;;;;;;12069778;28;20547;-78
2021/04/30 15:41:57;;;;;;;10.77;5.45;;;19.90;46.30;;;;;;12079136;28;20501;-79
2021/04/30 15:47:44;;;;;;;9.15;5.15;;;20.20;46.30;;;;;;12085637;28;20101;-80
2021/04/30 15:53:31;;;;;;;7.88;5.30;;;20.10;46.00;;;;;;12075732;28;20045;-79
2021/04/30 15:59:17;;;;;;;10.73;5.63;;;19.90;46.60;;;;;;12075862;28;20053;-79
2021/04/30 16:05:20;;;;;;;12.68;6.10;;;20.00;46.20;;;;;;12082573;28;20060;-79
2021/04/30 16:11:06;;;;;;;11.13;6.03;;;19.50;46.00;;;;;;12087173;28;20131;-80
2021/04/30 16:16:52;;;;;;;7.20;5.72;;;19.10;46.80;;;;;;12087147;28;20585;-79
2021/04/30 16:22:42;;;;;;;9.02;5.03;;;18.90;46.70;;;;;;12075786;28;20044;-80
2021/04/30 16:28:32;;;;;;;11.75;6.38;;;20.20;45.30;;;;;;12078044;28;20059;-79
2021/04/30 16:34:21;;;;;;;10.15;4.70;;;21.90;43.20;;;;;;12066573;28;20044;-80
2021/04/30 16:40:12;;;;;;;9.57;5.47;;;23.20;41.10;;;;;;12082264;28;20127;-79
2021/04/30 16:46:11;;;;;;;11.85;5.90;;;22.00;41.40;;;;;;12086829;28;20044;-80
2021/04/30 16:51:57;;;;;;;7.45;5.22;;;22.90;41.80;;;;;;12087419;28;20047;-80
2021/04/30 16:57:46;;;;;;;9.48;4.68;;;24.20;38.30;;;;;;12087953;28;20067;-80
2021/04/30 17:03:34;;;;;;;7.97;4.72;;;26.20;36.60;;;;;;12080406;28;20048;-80
2021/04/30 17:09:20;;;;;;;10.93;4.70;;;25.60;35.80;;;;;;12085323;28;20047;-79
2021/04/30 17:15:09;;;;;;;35.88;13.10;;;24.80;37.20;;;;;;12082846;28;20055;-79
2021/04/30 17:20:58;;;;;;;11.45;5.80;;;24.10;38.50;;;;;;12084354;28;20047;-79
2021/04/30 17:26:45;;;;;;;13.77;5.30;;;23.00;39.10;;;;;;12082613;28;20582;-79
2021/04/30 17:32:34;;;;;;;396.52;261.08;;;23.20;40.00;;;;;;12081526;28;20056;-78
2021/04/30 17:38:21;;;;;;;10.60;6.03;;;25.30;37.10;;;;;;12076764;28;20551;-82
2021/04/30 17:44:08;;;;;;;7.55;5.13;;;26.60;35.10;;;;;;12078139;28;20139;-82
2021/04/30 17:49:55;;;;;;;6.97;4.70;;;27.10;34.80;;;;;;12075278;28;20133;-81
2021/04/30 17:55:42;;;;;;;6.40;4.30;;;27.10;33.90;;;;;;12086447;28;20054;-80
2021/04/30 18:01:29;;;;;;;6.30;4.55;;;25.70;35.00;;;;;;12084863;28;20869;-81
2021/04/30 18:07:16;;;;;;;11.82;6.78;;;23.50;38.70;;;;;;12087592;28;20064;-81
2021/04/30 18:13:04;;;;;;;22.45;6.80;;;21.70;41.70;;;;;;12087595;28;20056;-81
2021/04/30 18:18:50;;;;;;;17.17;7.40;;;20.30;44.00;;;;;;12080014;28;20052;-81
2021/04/30 18:24:39;;;;;;;11.43;5.40;;;19.40;46.10;;;;;;12086418;28;20048;-82
2021/04/30 18:30:26;;;;;;;12.32;5.65;;;18.70;47.20;;;;;;12079641;28;20092;-81
2021/04/30 18:36:12;;;;;;;13.43;5.07;;;18.20;48.70;;;;;;12080743;28;20067;-80
2021/04/30 18:41:59;;;;;;;6.30;4.03;;;17.80;49.80;;;;;;12077846;28;20064;-81
2021/04/30 18:47:46;;;;;;;12.45;4.60;;;17.40;49.90;;;;;;12082524;28;20178;-81
2021/04/30 18:53:33;;;;;;;17.08;5.15;;;17.20;50.30;;;;;;12095130;28;20048;-80
2021/04/30 18:59:23;;;;;;;7.57;4.65;;;17.00;51.10;;;;;;12075114;28;20538;-80
2021/04/30 19:05:09;;;;;;;12.57;4.75;;;16.90;51.30;;;;;;12079145;28;20078;-78
2021/04/30 19:10:56;;;;;;;11.68;5.50;;;16.80;51.60;;;;;;12073098;28;20083;-76
2021/04/30 19:16:43;;;;;;;19.40;7.68;;;16.70;52.00;;;;;;12069510;28;20059;-76
2021/04/30 19:22:30;;;;;;;63.33;21.42;;;16.60;53.80;;;;;;12071228;28;20052;-79
2021/04/30 19:28:16;;;;;;;14.07;5.68;;;16.60;54.80;;;;;;12063499;28;20052;-79
2021/04/30 19:34:04;;;;;;;18.17;6.57;;;16.50;55.60;;;;;;12045103;28;20236;-79
2021/04/30 19:39:50;;;;;;;16.00;5.65;;;16.50;57.00;;;;;;12073510;28;20052;-79
2021/04/30 19:45:38;;;;;;;9.32;4.45;;;16.40;57.50;;;;;;12076493;28;20116;-77
2021/04/30 19:51:27;;;;;;;10.20;4.20;;;16.30;57.70;;;;;;12082987;28;20620;-78
2021/04/30 19:57:13;;;;;;;12.38;4.80;;;16.20;57.70;;;;;;11994671;28;20040;-80
2021/04/30 20:03:00;;;;;;;7.18;4.35;;;16.20;59.00;;;;;;12070413;28;20067;-80
2021/04/30 20:08:50;;;;;;;12.55;4.47;;;16.10;59.30;;;;;;12070704;28;20071;-80
2021/04/30 20:14:36;;;;;;;8.55;4.28;;;16.00;59.20;;;;;;12081498;28;20099;-79
2021/04/30 20:20:22;;;;;;;7.07;4.05;;;15.90;59.50;;;;;;12073062;28;20043;-82
2021/04/30 20:26:10;;;;;;;11.65;4.53;;;15.80;58.90;;;;;;12058919;28;20057;-78
2021/04/30 20:31:56;;;;;;;10.13;4.05;;;15.80;59.00;;;;;;12080379;28;20434;-79
2021/04/30 20:37:44;;;;;;;9.95;4.40;;;15.70;59.60;;;;;;12081307;28;20056;-79
2021/04/30 20:43:36;;;;;;;5.60;4.07;;;15.60;59.20;;;;;;12096788;27;20136;-78
2021/04/30 20:49:26;;;;;;;7.47;4.30;;;15.60;60.00;;;;;;12106112;28;20110;-85
2021/04/30 20:55:12;;;;;;;9.90;5.15;;;15.60;59.90;;;;;;12094222;28;20056;-80
2021/04/30 21:00:59;;;;;;;7.65;4.85;;;15.70;60.80;;;;;;12089464;28;20868;-78
2021/04/30 21:06:48;;;;;;;8.10;4.95;;;15.70;60.60;;;;;;12088115;28;20056;-80
2021/04/30 21:12:38;;;;;;;9.95;5.07;;;15.70;60.80;;;;;;12085655;28;20052;-80
2021/04/30 21:18:26;;;;;;;10.65;5.53;;;15.70;59.70;;;;;;12082087;28;20052;-80
2021/04/30 21:24:13;;;;;;;10.88;5.93;;;15.80;59.50;;;;;;12076107;28;20048;-80
2021/04/30 21:30:00;;;;;;;8.05;4.90;;;15.80;59.20;;;;;;12076352;28;20048;-79
2021/04/30 21:35:48;;;;;;;9.07;4.78;;;15.70;60.50;;;;;;12063767;28;20055;-80
2021/04/30 21:41:35;;;;;;;8.93;5.40;;;15.60;61.20;;;;;;12082535;28;20055;-80
2021/04/30 21:47:21;;;;;;;10.23;5.30;;;15.60;63.00;;;;;;12086539;28;20105;-81
2021/04/30 21:53:18;;;;;;;10.05;4.95;;;15.50;64.20;;;;;;12091769;28;20117;-80
2021/04/30 21:59:05;;;;;;;10.50;4.78;;;15.50;64.30;;;;;;12101155;28;20072;-81
2021/04/30 22:04:52;;;;;;;9.40;5.90;;;15.50;63.60;;;;;;12097986;28;20814;-80
2021/04/30 22:10:39;;;;;;;8.88;5.30;;;15.40;64.20;;;;;;12101753;28;20040;-80
2021/04/30 22:16:26;;;;;;;10.10;5.45;;;15.50;64.30;;;;;;12092227;28;20131;-79
2021/04/30 22:22:12;;;;;;;9.52;6.32;;;15.50;63.90;;;;;;12110630;28;20051;-80
2021/04/30 22:27:59;;;;;;;12.02;6.80;;;15.50;64.20;;;;;;12093392;28;20048;-79
2021/04/30 22:33:46;;;;;;;10.85;6.47;;;15.50;64.00;;;;;;12088320;28;20048;-79
2021/04/30 22:39:33;;;;;;;12.20;6.28;;;15.40;63.80;;;;;;12097696;28;20047;-80
2021/04/30 22:45:24;;;;;;;8.98;6.55;;;15.40;63.80;;;;;;12095640;28;20058;-79
2021/04/30 22:51:11;;;;;;;16.48;7.45;;;15.40;64.30;;;;;;12095970;28;20226;-80
2021/04/30 22:56:58;;;;;;;9.77;6.63;;;15.30;63.40;;;;;;12093961;28;20059;-81
2021/04/30 23:02:48;;;;;;;10.20;6.45;;;15.10;63.50;;;;;;12087021;28;20051;-81
2021/04/30 23:08:34;;;;;;;10.02;6.63;;;15.10;63.90;;;;;;12086063;28;20047;-80
2021/04/30 23:14:21;;;;;;;11.43;7.30;;;15.10;64.70;;;;;;12092882;28;20144;-79
2021/04/30 23:20:09;;;;;;;11.52;7.15;;;15.10;64.30;;;;;;12083534;28;20056;-80
2021/04/30 23:25:56;;;;;;;10.15;6.47;;;14.90;64.80;;;;;;12090472;28;20048;-81
2021/04/30 23:31:42;;;;;;;11.18;6.68;;;14.80;64.80;;;;;;12083487;28;20134;-81
2021/04/30 23:37:29;;;;;;;15.38;7.32;;;14.80;64.60;;;;;;12085239;28;20048;-81
2021/04/30 23:43:17;;;;;;;11.02;6.82;;;14.80;64.50;;;;;;12087442;28;20047;-81
2021/04/30 23:49:05;;;;;;;10.95;6.60;;;14.70;64.60;;;;;;12081092;28;20048;-81
2021/04/30 23:54:52;;;;;;;12.55;7.00;;;14.70;65.30;;;;;;12084985;28;20467;-80
